Time;durP1;ratioP1;P1;durP2;ratioP2;P2;SDS_P1;SDS_P2;PMS_P1;PMS_P2;Temp;Humidity;BMP_temperature;BMP_pressure;BME280_temperature;BME280_humidity;BME280_pressure;Samples;Min_cycle;Max_cycle;Signal;HPM_P1;HPM_P2
2022/04/27 00:00:35;;;;;;;12.10;10.20;;;;;;;;;;5014464;28;20207;-64
2022/04/27 00:03:03;;;;;;;12.43;9.87;;;;;;;;;;5017021;28;20238;-64
2022/04/27 00:05:31;;;;;;;12.23;10.23;;;;;;;;;;5014118;28;20705;-63
2022/04/27 00:07:59;;;;;;;12.50;9.73;;;;;;;;;;5020884;28;20203;-65
2022/04/27 00:10:27;;;;;;;18.67;13.33;;;;;;;;;;5015297;28;20323;-63
2022/04/27 00:12:54;;;;;;;17.23;12.03;;;;;;;;;;5013439;28;20253;-63
2022/04/27 00:15:25;;;;;;;20.73;13.57;;;;;;;;;;5016626;28;20219;-64
2022/04/27 00:17:52;;;;;;;11.10;9.37;;;;;;;;;;5025205;28;20199;-64
2022/04/27 00:20:19;;;;;;;10.60;9.17;;;;;;;;;;5010148;28;20203;-64
2022/04/27 00:22:47;;;;;;;11.77;8.93;;;;;;;;;;5016235;28;20217;-63
2022/04/27 00:25:16;;;;;;;12.60;9.47;;;;;;;;;;5016099;28;20720;-63
2022/04/27 00:27:44;;;;;;;11.00;9.80;;;;;;;;;;5027878;28;20234;-64
2022/04/27 00:30:11;;;;;;;11.43;10.00;;;;;;;;;;5022039;28;20238;-64
2022/04/27 00:32:39;;;;;;;13.60;12.20;;;;;;;;;;5007345;28;20213;-63
2022/04/27 00:35:08;;;;;;;9.87;8.60;;;;;;;;;;5021206;28;20218;-64
2022/04/27 00:37:36;;;;;;;7.03;6.33;;;;;;;;;;5020621;28;20776;-63
2022/04/27 00:40:04;;;;;;;6.77;5.50;;;;;;;;;;5025196;28;20665;-64
2022/04/27 00:42:31;;;;;;;5.70;5.10;;;;;;;;;;5023572;28;20199;-63
2022/04/27 00:44:59;;;;;;;5.50;5.00;;;;;;;;;;5017039;28;20575;-65
2022/04/27 00:47:28;;;;;;;5.37;4.87;;;;;;;;;;5012078;28;20206;-64
2022/04/27 00:49:57;;;;;;;5.50;5.00;;;;;;;;;;5020652;28;21399;-64
2022/04/27 00:52:25;;;;;;;5.70;5.20;;;;;;;;;;5026793;28;20277;-63
2022/04/27 00:54:53;;;;;;;6.03;5.43;;;;;;;;;;5018213;28;20293;-63
2022/04/27 00:57:23;;;;;;;12.53;8.43;;;;;;;;;;5012948;28;20764;-65
2022/04/27 00:59:50;;;;;;;10.70;7.47;;;;;;;;;;5020349;28;20207;-64
2022/04/27 01:02:17;;;;;;;9.17;6.33;;;;;;;;;;5016297;28;20231;-65
2022/04/27 01:04:45;;;;;;;7.93;5.63;;;;;;;;;;5016803;28;20217;-64
2022/04/27 01:07:13;;;;;;;6.97;5.13;;;;;;;;;;5020123;28;20246;-64
2022/04/27 01:09:40;;;;;;;5.27;4.87;;;;;;;;;;5022681;28;20672;-65
2022/04/27 01:12:08;;;;;;;5.37;4.87;;;;;;;;;;5016724;28;20266;-63
2022/04/27 01:14:45;;;;;;;5.53;5.07;;;;;;;;;;5013758;28;20579;-64
2022/04/27 01:17:13;;;;;;;5.23;4.73;;;;;;;;;;5015491;28;20626;-65
2022/04/27 01:19:40;;;;;;;4.83;4.43;;;;;;;;;;5015405;28;20196;-65
2022/04/27 01:22:07;;;;;;;6.00;5.50;;;;;;;;;;5017838;28;20211;-65
2022/04/27 01:24:36;;;;;;;5.30;4.90;;;;;;;;;;5021102;28;20207;-65
2022/04/27 01:27:04;;;;;;;4.33;4.00;;;;;;;;;;5015898;28;20693;-64
2022/04/27 01:29:33;;;;;;;7.10;5.80;;;;;;;;;;5018917;28;20206;-65
2022/04/27 01:32:01;;;;;;;3.90;3.60;;;;;;;;;;5016921;28;20239;-64
2022/04/27 01:34:29;;;;;;;4.43;4.03;;;;;;;;;;5002557;28;20207;-64
2022/04/27 01:39:43;;;;;;;3.90;3.60;;;;;;;;;;5015605;28;20580;-64
2022/04/27 01:42:11;;;;;;;4.17;3.87;;;;;;;;;;5018349;28;20261;-64
2022/04/27 01:44:39;;;;;;;3.43;3.20;;;;;;;;;;5011467;28;20215;-63
2022/04/27 01:47:06;;;;;;;3.80;3.50;;;;;;;;;;5019689;28;20239;-64
2022/04/27 01:49:33;;;;;;;4.03;3.73;;;;;;;;;;5013428;28;20207;-65
2022/04/27 01:54:47;;;;;;;3.87;3.57;;;;;;;;;;5019490;28;20199;-64
2022/04/27 01:57:14;;;;;;;3.50;3.20;;;;;;;;;;5016575;28;20219;-65
2022/04/27 01:59:42;;;;;;;3.67;3.37;;;;;;;;;;5020684;28;20241;-64
2022/04/27 02:02:10;;;;;;;3.57;3.27;;;;;;;;;;5017293;28;20680;-65
2022/04/27 02:04:40;;;;;;;3.53;3.23;;;;;;;;;;5015860;28;20206;-64
2022/04/27 02:07:08;;;;;;;3.20;3.00;;;;;;;;;;5002430;28;20283;-64
2022/04/27 02:09:36;;;;;;;2.73;2.50;;;;;;;;;;5017351;28;20269;-64
2022/04/27 02:12:05;;;;;;;2.57;2.37;;;;;;;;;;5009809;28;20759;-65
2022/04/27 02:14:32;;;;;;;2.63;2.43;;;;;;;;;;5016336;28;20211;-64
2022/04/27 02:17:00;;;;;;;2.73;2.53;;;;;;;;;;5014262;28;20265;-64
2022/04/27 02:19:27;;;;;;;3.97;3.17;;;;;;;;;;5021302;28;20318;-63
2022/04/27 02:21:56;;;;;;;16.57;10.53;;;;;;;;;;5020610;28;21427;-65
2022/04/27 02:24:24;;;;;;;4.30;4.00;;;;;;;;;;5019855;28;20214;-65
2022/04/27 02:26:53;;;;;;;3.87;3.57;;;;;;;;;;5020272;28;20242;-64
2022/04/27 02:29:22;;;;;;;4.10;3.80;;;;;;;;;;5020865;28;20298;-65
2022/04/27 02:31:50;;;;;;;3.83;3.47;;;;;;;;;;5010139;28;20851;-62
2022/04/27 02:34:17;;;;;;;3.60;3.30;;;;;;;;;;5016387;28;20218;-65
2022/04/27 02:36:45;;;;;;;4.30;4.00;;;;;;;;;;5016949;28;20795;-63
2022/04/27 02:39:12;;;;;;;4.50;4.10;;;;;;;;;;5010782;28;20203;-65
2022/04/27 02:41:41;;;;;;;5.00;4.60;;;;;;;;;;5018277;28;20203;-64
2022/04/27 02:44:08;;;;;;;4.97;4.53;;;;;;;;;;5023605;28;20211;-64
2022/04/27 02:46:37;;;;;;;5.70;5.20;;;;;;;;;;5014060;28;20234;-64
2022/04/27 02:51:54;;;;;;;6.97;6.27;;;;;;;;;;5012122;28;20763;-63
2022/04/27 02:54:22;;;;;;;13.43;10.00;;;;;;;;;;5018950;28;20211;-64
2022/04/27 02:56:50;;;;;;;8.50;7.70;;;;;;;;;;5021962;28;20704;-63
2022/04/27 02:59:18;;;;;;;6.60;6.00;;;;;;;;;;5021649;28;20207;-65
2022/04/27 03:01:45;;;;;;;8.50;7.57;;;;;;;;;;5009209;28;20719;-65
2022/04/27 03:04:13;;;;;;;6.40;5.80;;;;;;;;;;5017486;28;20203;-64
2022/04/27 03:06:41;;;;;;;7.23;6.53;;;;;;;;;;5015859;28;20238;-65
2022/04/27 03:09:08;;;;;;;9.03;7.77;;;;;;;;;;5017867;28;20695;-64
2022/04/27 03:11:35;;;;;;;8.00;7.20;;;;;;;;;;5019865;28;20276;-65
2022/04/27 03:14:03;;;;;;;7.47;6.77;;;;;;;;;;5023075;28;20203;-64
2022/04/27 03:16:30;;;;;;;7.97;7.23;;;;;;;;;;5022952;28;20461;-64
2022/04/27 03:18:58;;;;;;;6.90;6.30;;;;;;;;;;5014570;28;20211;-64
2022/04/27 03:21:28;;;;;;;7.83;6.97;;;;;;;;;;5023687;28;20273;-65
2022/04/27 03:23:56;;;;;;;7.83;7.03;;;;;;;;;;5020979;28;20223;-64
2022/04/27 03:26:23;;;;;;;8.10;6.83;;;;;;;;;;5021819;28;20366;-64
2022/04/27 03:28:50;;;;;;;6.93;6.33;;;;;;;;;;5017633;28;20210;-64
2022/04/27 03:31:18;;;;;;;8.83;8.00;;;;;;;;;;5016537;28;20269;-64
2022/04/27 03:33:45;;;;;;;7.83;7.03;;;;;;;;;;5021190;28;20206;-64
2022/04/27 03:36:13;;;;;;;7.83;7.00;;;;;;;;;;5015117;28;20219;-65
2022/04/27 03:38:41;;;;;;;7.53;6.83;;;;;;;;;;5019599;28;21491;-64
2022/04/27 03:41:10;;;;;;;6.33;5.73;;;;;;;;;;5017630;28;20203;-64
2022/04/27 03:43:37;;;;;;;6.60;6.00;;;;;;;;;;5018315;28;20701;-65
2022/04/27 03:46:05;;;;;;;7.27;6.57;;;;;;;;;;5022366;28;20237;-65
2022/04/27 03:48:33;;;;;;;8.17;7.37;;;;;;;;;;5021137;28;20556;-64
2022/04/27 03:51:00;;;;;;;7.17;6.47;;;;;;;;;;5018544;28;20676;-62
2022/04/27 03:53:27;;;;;;;8.80;8.00;;;;;;;;;;5024619;28;20234;-63
2022/04/27 03:55:55;;;;;;;8.50;7.70;;;;;;;;;;5018019;28;20595;-65
2022/04/27 03:58:22;;;;;;;8.23;7.40;;;;;;;;;;5018805;28;20228;-64
2022/04/27 04:00:49;;;;;;;8.03;7.23;;;;;;;;;;5023394;28;20660;-64
2022/04/27 04:03:17;;;;;;;9.00;8.10;;;;;;;;;;5020771;28;21371;-64
2022/04/27 04:05:50;;;;;;;9.77;8.37;;;;;;;;;;5007241;28;20243;-64
2022/04/27 04:08:17;;;;;;;9.80;8.80;;;;;;;;;;5016103;28;20229;-64
2022/04/27 04:10:45;;;;;;;8.70;7.80;;;;;;;;;;5015201;28;20215;-66
2022/04/27 04:13:13;;;;;;;9.40;8.50;;;;;;;;;;5012970;28;20234;-65
2022/04/27 04:15:40;;;;;;;9.70;8.80;;;;;;;;;;5013248;28;20250;-65
2022/04/27 04:18:08;;;;;;;11.33;9.90;;;;;;;;;;5012082;28;20700;-64
2022/04/27 04:20:35;;;;;;;9.90;8.77;;;;;;;;;;5022421;28;20202;-64
2022/04/27 04:23:03;;;;;;;9.70;8.70;;;;;;;;;;5023178;28;20417;-64
2022/04/27 04:28:31;;;;;;;12.63;11.03;;;;;;;;;;5018953;28;20258;-64
2022/04/27 04:31:00;;;;;;;13.23;10.97;;;;;;;;;;5015277;28;20703;-63
2022/04/27 04:33:28;;;;;;;11.07;9.97;;;;;;;;;;5016073;28;20317;-65
2022/04/27 04:35:56;;;;;;;11.93;10.63;;;;;;;;;;5020922;28;20230;-65
2022/04/27 04:38:24;;;;;;;11.83;10.30;;;;;;;;;;5023739;28;20239;-65
2022/04/27 04:40:52;;;;;;;12.10;10.23;;;;;;;;;;5012328;28;20199;-63
2022/04/27 04:43:19;;;;;;;13.60;11.40;;;;;;;;;;5016976;28;20207;-63
2022/04/27 04:45:47;;;;;;;12.73;10.50;;;;;;;;;;5023737;28;20227;-62
2022/04/27 04:48:15;;;;;;;11.77;10.40;;;;;;;;;;5019839;28;20219;-64
2022/04/27 04:50:42;;;;;;;11.07;9.80;;;;;;;;;;5020412;28;20235;-65
2022/04/27 04:53:10;;;;;;;11.27;9.87;;;;;;;;;;5028737;28;20223;-64
2022/04/27 04:55:37;;;;;;;8.93;8.03;;;;;;;;;;5017887;28;20273;-64
2022/04/27 04:58:05;;;;;;;9.23;8.33;;;;;;;;;;5020826;28;20699;-65
2022/04/27 05:00:32;;;;;;;9.17;8.20;;;;;;;;;;5019592;28;20198;-64
2022/04/27 05:03:00;;;;;;;8.03;7.23;;;;;;;;;;5019841;28;20214;-64
2022/04/27 05:05:27;;;;;;;9.10;8.20;;;;;;;;;;5022850;28;20631;-64
2022/04/27 05:07:56;;;;;;;9.13;8.23;;;;;;;;;;5021372;28;20208;-64
2022/04/27 05:10:23;;;;;;;8.70;7.80;;;;;;;;;;5019465;28;20208;-64
2022/04/27 05:12:51;;;;;;;8.03;7.23;;;;;;;;;;5004652;28;20572;-65
2022/04/27 05:15:18;;;;;;;9.40;8.23;;;;;;;;;;5015894;28;20634;-64
2022/04/27 05:17:46;;;;;;;8.77;7.87;;;;;;;;;;5014711;28;20718;-64
2022/04/27 05:20:13;;;;;;;8.37;7.57;;;;;;;;;;5016408;28;20251;-64
2022/04/27 05:22:40;;;;;;;10.00;9.00;;;;;;;;;;5019130;28;20235;-64
2022/04/27 05:25:09;;;;;;;8.67;7.77;;;;;;;;;;5011088;28;20333;-65
2022/04/27 05:27:37;;;;;;;9.50;8.53;;;;;;;;;;5018349;28;20211;-63
2022/04/27 05:32:55;;;;;;;7.60;6.90;;;;;;;;;;5019011;28;20602;-64
2022/04/27 05:35:22;;;;;;;9.87;8.87;;;;;;;;;;5017320;28;20270;-64
2022/04/27 05:37:50;;;;;;;8.70;7.80;;;;;;;;;;5021032;28;20724;-64
2022/04/27 05:40:18;;;;;;;7.23;6.53;;;;;;;;;;5020609;28;20291;-65
2022/04/27 05:42:48;;;;;;;7.73;6.93;;;;;;;;;;5016163;28;21210;-65
2022/04/27 05:45:15;;;;;;;7.27;6.57;;;;;;;;;;5017534;28;20230;-65
2022/04/27 05:47:43;;;;;;;7.03;6.43;;;;;;;;;;5023944;28;20210;-64
2022/04/27 05:50:10;;;;;;;18.50;14.80;;;;;;;;;;5024980;28;20219;-64
2022/04/27 05:53:07;;;;;;;7.57;6.87;;;;;;;;;;5018909;28;20223;-63
2022/04/27 05:55:37;;;;;;;7.03;6.43;;;;;;;;;;5003674;28;20219;-64
2022/04/27 05:58:04;;;;;;;6.27;5.53;;;;;;;;;;5015429;28;20214;-64
2022/04/27 06:00:32;;;;;;;6.67;6.07;;;;;;;;;;5020284;28;20202;-65
2022/04/27 06:03:00;;;;;;;6.30;5.70;;;;;;;;;;5018562;28;20215;-64
2022/04/27 06:05:27;;;;;;;6.63;6.03;;;;;;;;;;5021080;28;20250;-64
2022/04/27 06:07:55;;;;;;;6.17;5.60;;;;;;;;;;5020134;28;20214;-63
2022/04/27 06:10:22;;;;;;;7.63;6.93;;;;;;;;;;5010222;28;20214;-64
2022/04/27 06:12:49;;;;;;;6.00;5.40;;;;;;;;;;5018009;28;20294;-65
2022/04/27 06:15:17;;;;;;;6.80;6.20;;;;;;;;;;5015896;28;20862;-64
2022/04/27 06:17:50;;;;;;;7.40;6.70;;;;;;;;;;5017180;28;20211;-63
2022/04/27 06:20:17;;;;;;;6.30;5.70;;;;;;;;;;5016280;28;20486;-63
2022/04/27 06:22:45;;;;;;;24.53;22.33;;;;;;;;;;5025229;28;20207;-64
2022/04/27 06:25:12;;;;;;;8.07;7.37;;;;;;;;;;5021478;28;20748;-64
2022/04/27 06:27:40;;;;;;;6.17;5.67;;;;;;;;;;5023464;28;20218;-64
2022/04/27 06:30:08;;;;;;;6.47;5.93;;;;;;;;;;5022787;28;20211;-64
2022/04/27 06:32:35;;;;;;;5.77;5.27;;;;;;;;;;5024222;28;20228;-65
2022/04/27 06:35:04;;;;;;;5.63;5.13;;;;;;;;;;5018806;28;20264;-65
2022/04/27 06:37:32;;;;;;;5.80;5.30;;;;;;;;;;5022242;28;20671;-65
2022/04/27 06:39:59;;;;;;;6.13;5.63;;;;;;;;;;5021089;28;20210;-65
2022/04/27 06:42:26;;;;;;;5.97;5.47;;;;;;;;;;5018417;28;20418;-65
2022/04/27 06:44:54;;;;;;;5.07;4.67;;;;;;;;;;5021386;28;20222;-65
2022/04/27 06:47:21;;;;;;;5.17;4.77;;;;;;;;;;5005533;28;20226;-65
2022/04/27 06:49:49;;;;;;;6.17;5.70;;;;;;;;;;5018052;28;20211;-65
2022/04/27 06:52:16;;;;;;;5.67;5.17;;;;;;;;;;5008307;28;20232;-65
2022/04/27 06:54:43;;;;;;;5.60;5.10;;;;;;;;;;5017241;28;20926;-63
2022/04/27 06:57:11;;;;;;;4.97;4.53;;;;;;;;;;5013121;28;20219;-63
2022/04/27 06:59:38;;;;;;;5.17;4.77;;;;;;;;;;5010624;28;24112;-65
2022/04/27 07:02:10;;;;;;;5.10;4.70;;;;;;;;;;5007597;28;20210;-65
2022/04/27 07:04:38;;;;;;;5.67;5.17;;;;;;;;;;5011714;28;20214;-64
2022/04/27 07:07:05;;;;;;;6.17;5.67;;;;;;;;;;5015855;28;20215;-66
2022/04/27 07:09:33;;;;;;;4.93;4.53;;;;;;;;;;5017020;28;20206;-65
2022/04/27 07:12:01;;;;;;;4.67;4.27;;;;;;;;;;5015423;28;20286;-65
2022/04/27 07:14:28;;;;;;;5.20;4.80;;;;;;;;;;5017096;28;20211;-64
2022/04/27 07:16:55;;;;;;;4.90;4.50;;;;;;;;;;5020969;28;20318;-64
2022/04/27 07:19:23;;;;;;;5.37;4.87;;;;;;;;;;5015066;28;20543;-65
2022/04/27 07:21:50;;;;;;;6.07;5.57;;;;;;;;;;5017412;28;20233;-65
2022/04/27 07:24:20;;;;;;;4.97;4.57;;;;;;;;;;5023623;28;20200;-65
2022/04/27 07:26:47;;;;;;;4.83;4.43;;;;;;;;;;5022659;28;20234;-65
2022/04/27 07:29:15;;;;;;;3.73;3.43;;;;;;;;;;5014865;28;20203;-65
2022/04/27 07:31:48;;;;;;;3.80;3.50;;;;;;;;;;5017078;28;20210;-64
2022/04/27 07:34:15;;;;;;;4.07;3.77;;;;;;;;;;5018167;28;20233;-63
2022/04/27 07:36:43;;;;;;;4.63;4.17;;;;;;;;;;5021338;28;20226;-63
2022/04/27 07:39:10;;;;;;;4.53;3.77;;;;;;;;;;5021081;28;20429;-65
2022/04/27 07:41:38;;;;;;;5.80;5.20;;;;;;;;;;5016723;28;20207;-65
2022/04/27 07:44:06;;;;;;;5.00;4.60;;;;;;;;;;5015105;28;20211;-64
2022/04/27 07:46:34;;;;;;;5.10;4.70;;;;;;;;;;5013021;28;20237;-65
2022/04/27 07:49:01;;;;;;;5.30;4.80;;;;;;;;;;5011627;28;20246;-65
2022/04/27 07:51:29;;;;;;;5.03;4.63;;;;;;;;;;5018985;28;20273;-65
2022/04/27 07:53:56;;;;;;;5.30;4.80;;;;;;;;;;5016840;28;20243;-64
2022/04/27 07:56:24;;;;;;;6.13;5.53;;;;;;;;;;5010527;28;20230;-65
2022/04/27 07:58:51;;;;;;;6.33;5.17;;;;;;;;;;5011321;28;20195;-65
2022/04/27 08:01:19;;;;;;;5.27;4.87;;;;;;;;;;5008952;28;20203;-65
2022/04/27 08:03:47;;;;;;;5.70;5.20;;;;;;;;;;5013165;28;20273;-66
2022/04/27 08:06:14;;;;;;;5.80;5.30;;;;;;;;;;5013462;28;20399;-65
2022/04/27 08:08:41;;;;;;;5.80;5.30;;;;;;;;;;5018305;28;20225;-65
2022/04/27 08:11:10;;;;;;;6.03;5.53;;;;;;;;;;5015212;28;20207;-63
2022/04/27 08:13:37;;;;;;;6.00;5.50;;;;;;;;;;5014344;28;20836;-65
2022/04/27 08:16:07;;;;;;;5.70;5.30;;;;;;;;;;5010675;28;20227;-65
2022/04/27 08:18:35;;;;;;;4.97;4.57;;;;;;;;;;5019178;28;20203;-64
2022/04/27 08:21:15;;;;;;;5.90;5.20;;;;;;;;;;5010917;28;21059;-65
2022/04/27 08:23:45;;;;;;;5.10;4.70;;;;;;;;;;5012803;28;20214;-66
2022/04/27 08:26:13;;;;;;;5.93;5.43;;;;;;;;;;5015829;28;20227;-65
2022/04/27 08:28:41;;;;;;;5.27;4.87;;;;;;;;;;5002810;28;20818;-66
2022/04/27 08:31:09;;;;;;;4.23;3.93;;;;;;;;;;5005213;28;20203;-65
2022/04/27 08:33:37;;;;;;;4.47;4.13;;;;;;;;;;5017223;28;20638;-65
2022/04/27 08:36:05;;;;;;;3.60;3.37;;;;;;;;;;5016563;28;20223;-66
2022/04/27 08:38:52;;;;;;;3.87;3.57;;;;;;;;;;5012814;28;20310;-64
2022/04/27 08:41:20;;;;;;;3.87;3.53;;;;;;;;;;5013758;28;20207;-65
2022/04/27 08:43:47;;;;;;;5.77;5.27;;;;;;;;;;5016293;28;20233;-65
2022/04/27 08:46:15;;;;;;;5.70;5.20;;;;;;;;;;5029204;28;20226;-65
2022/04/27 08:48:51;;;;;;;5.30;4.90;;;;;;;;;;5020928;28;20625;-64
2022/04/27 08:51:19;;;;;;;5.37;4.87;;;;;;;;;;5016464;28;20223;-63
2022/04/27 08:53:46;;;;;;;5.33;4.93;;;;;;;;;;5021647;28;20281;-63
2022/04/27 08:56:15;;;;;;;7.20;5.00;;;;;;;;;;5016780;28;20231;-64
2022/04/27 08:58:42;;;;;;;5.30;4.90;;;;;;;;;;5018898;28;20233;-65
2022/04/27 09:01:10;;;;;;;5.50;5.00;;;;;;;;;;5002763;28;20681;-65
2022/04/27 09:03:39;;;;;;;4.70;4.30;;;;;;;;;;5007668;28;20219;-65
2022/04/27 09:06:08;;;;;;;4.80;4.40;;;;;;;;;;5010242;28;20238;-64
2022/04/27 09:08:43;;;;;;;4.67;4.27;;;;;;;;;;5018443;28;20218;-65
2022/04/27 09:11:13;;;;;;;5.37;4.90;;;;;;;;;;5016261;28;20238;-65
2022/04/27 09:13:41;;;;;;;5.30;4.90;;;;;;;;;;5020534;28;20239;-64
2022/04/27 09:16:09;;;;;;;5.47;4.90;;;;;;;;;;5012259;28;20238;-64
2022/04/27 09:21:53;;;;;;;5.50;5.00;;;;;;;;;;5013365;28;20202;-64
2022/04/27 09:24:21;;;;;;;5.60;5.10;;;;;;;;;;5013343;28;20372;-65
2022/04/27 09:27:20;;;;;;;5.33;4.93;;;;;;;;;;5016812;28;20603;-64
2022/04/27 09:29:58;;;;;;;5.77;5.27;;;;;;;;;;4968656;28;20203;-64
2022/04/27 09:32:26;;;;;;;5.13;4.73;;;;;;;;;;5016310;28;20233;-64
2022/04/27 09:34:53;;;;;;;5.37;4.87;;;;;;;;;;5015293;28;20679;-64
2022/04/27 09:37:22;;;;;;;5.73;5.23;;;;;;;;;;5016038;28;20226;-64
2022/04/27 09:40:04;;;;;;;5.50;5.00;;;;;;;;;;5014731;28;21011;-64
2022/04/27 09:42:33;;;;;;;5.20;4.80;;;;;;;;;;5013319;28;20207;-64
2022/04/27 09:45:20;;;;;;;5.10;4.70;;;;;;;;;;5014155;28;20290;-64
2022/04/27 09:47:53;;;;;;;4.50;4.10;;;;;;;;;;5012796;28;20210;-64
2022/04/27 09:50:20;;;;;;;4.87;4.37;;;;;;;;;;5012184;28;20218;-64
2022/04/27 09:52:48;;;;;;;5.20;4.67;;;;;;;;;;5024578;28;20600;-64
2022/04/27 09:55:16;;;;;;;4.73;4.33;;;;;;;;;;5008929;28;20931;-65
2022/04/27 09:57:50;;;;;;;4.97;4.57;;;;;;;;;;5012479;28;20207;-65
2022/04/27 10:00:19;;;;;;;5.03;4.60;;;;;;;;;;5013019;28;20322;-65
2022/04/27 10:02:47;;;;;;;5.03;4.63;;;;;;;;;;5009346;28;20622;-64
2022/04/27 10:05:15;;;;;;;4.27;3.87;;;;;;;;;;5018509;28;20207;-64
2022/04/27 10:07:42;;;;;;;4.00;3.70;;;;;;;;;;5007837;28;20214;-67
2022/04/27 10:10:10;;;;;;;4.57;3.70;;;;;;;;;;5010984;28;20207;-66
2022/04/27 10:12:40;;;;;;;5.00;4.43;;;;;;;;;;5000786;28;20198;-64
2022/04/27 10:15:07;;;;;;;4.73;4.33;;;;;;;;;;5013506;28;20284;-66
2022/04/27 10:17:35;;;;;;;4.10;3.80;;;;;;;;;;5002858;28;20203;-66
2022/04/27 10:20:22;;;;;;;4.93;4.53;;;;;;;;;;4997375;28;20293;-66
2022/04/27 10:22:50;;;;;;;4.80;4.40;;;;;;;;;;5008241;28;20203;-65
2022/04/27 10:25:19;;;;;;;5.33;4.83;;;;;;;;;;5014268;28;20207;-65
2022/04/27 10:27:46;;;;;;;4.47;4.13;;;;;;;;;;5025939;28;20207;-64
2022/04/27 10:30:15;;;;;;;5.37;4.70;;;;;;;;;;5016375;28;20302;-65
2022/04/27 10:32:43;;;;;;;5.17;4.77;;;;;;;;;;5006580;28;20233;-64
2022/04/27 10:35:21;;;;;;;5.53;5.03;;;;;;;;;;5006432;28;20678;-66
2022/04/27 10:37:59;;;;;;;5.50;5.00;;;;;;;;;;5002647;28;20326;-63
2022/04/27 10:40:29;;;;;;;5.03;4.63;;;;;;;;;;5010504;28;20213;-64
2022/04/27 10:43:14;;;;;;;5.30;4.80;;;;;;;;;;5013138;28;20238;-64
2022/04/27 10:45:45;;;;;;;5.00;4.60;;;;;;;;;;5009345;28;20831;-63
2022/04/27 10:48:23;;;;;;;5.13;4.73;;;;;;;;;;5005478;28;20213;-64
2022/04/27 10:50:55;;;;;;;5.90;5.30;;;;;;;;;;5009515;28;20239;-63
2022/04/27 10:53:24;;;;;;;6.77;4.97;;;;;;;;;;5019785;28;20226;-65
2022/04/27 10:55:58;;;;;;;5.50;5.00;;;;;;;;;;5017571;28;20253;-65
2022/04/27 10:58:31;;;;;;;5.10;4.70;;;;;;;;;;5020452;28;20266;-64
2022/04/27 11:00:59;;;;;;;5.27;4.77;;;;;;;;;;5007947;28;20230;-65
2022/04/27 11:03:27;;;;;;;5.60;5.07;;;;;;;;;;5016858;28;20218;-64
2022/04/27 11:05:57;;;;;;;5.80;5.30;;;;;;;;;;5017845;28;20254;-64
2022/04/27 11:08:37;;;;;;;6.63;6.03;;;;;;;;;;5023966;28;20395;-64
2022/04/27 11:11:06;;;;;;;8.60;7.80;;;;;;;;;;5024230;28;20207;-65
2022/04/27 11:13:35;;;;;;;8.93;8.03;;;;;;;;;;5025746;28;20246;-65
2022/04/27 11:16:13;;;;;;;6.10;5.50;;;;;;;;;;5022067;28;20235;-64
2022/04/27 11:18:50;;;;;;;5.87;5.37;;;;;;;;;;5023280;28;20306;-65
2022/04/27 11:21:21;;;;;;;5.50;5.00;;;;;;;;;;5017831;28;20210;-65
2022/04/27 11:23:49;;;;;;;6.40;5.80;;;;;;;;;;5015569;28;20212;-64
2022/04/27 11:26:16;;;;;;;6.80;5.97;;;;;;;;;;5012901;28;20230;-65
2022/04/27 11:28:47;;;;;;;5.90;5.30;;;;;;;;;;5019925;28;20211;-65
2022/04/27 11:31:16;;;;;;;5.23;4.73;;;;;;;;;;5017458;28;20207;-66
2022/04/27 11:33:44;;;;;;;4.80;4.40;;;;;;;;;;5019821;28;20396;-65
2022/04/27 11:36:21;;;;;;;4.57;4.17;;;;;;;;;;5015698;28;20281;-65
2022/04/27 11:38:49;;;;;;;4.37;4.07;;;;;;;;;;5018114;28;20210;-65
2022/04/27 11:41:19;;;;;;;5.20;4.30;;;;;;;;;;5018465;28;20208;-64
2022/04/27 11:43:47;;;;;;;4.43;4.03;;;;;;;;;;5020675;28;20590;-65
2022/04/27 11:46:17;;;;;;;4.13;3.83;;;;;;;;;;5010914;28;20314;-65
2022/04/27 11:48:48;;;;;;;4.53;4.17;;;;;;;;;;5019360;28;20582;-64
2022/04/27 11:51:15;;;;;;;4.60;4.27;;;;;;;;;;5019267;28;20261;-65
2022/04/27 11:53:43;;;;;;;5.70;5.20;;;;;;;;;;5026581;28;20202;-65
2022/04/27 11:56:11;;;;;;;4.87;4.47;;;;;;;;;;5017580;28;20215;-65
2022/04/27 11:58:38;;;;;;;4.77;4.40;;;;;;;;;;5016918;28;20812;-64
2022/04/27 12:01:06;;;;;;;4.83;4.43;;;;;;;;;;5020387;28;20203;-66
2022/04/27 12:03:40;;;;;;;5.40;4.90;;;;;;;;;;5013866;28;20676;-65
2022/04/27 12:06:09;;;;;;;4.90;4.50;;;;;;;;;;5007260;28;20257;-65
2022/04/27 12:08:42;;;;;;;4.90;4.40;;;;;;;;;;5015556;28;21493;-65
2022/04/27 12:11:09;;;;;;;4.10;3.80;;;;;;;;;;5013072;28;20223;-66
2022/04/27 12:13:36;;;;;;;4.20;3.80;;;;;;;;;;5014641;28;20231;-65
2022/04/27 12:16:04;;;;;;;4.60;3.80;;;;;;;;;;5012079;28;20577;-65
2022/04/27 12:18:31;;;;;;;4.03;3.73;;;;;;;;;;5008674;28;20213;-65
2022/04/27 12:21:18;;;;;;;4.20;3.80;;;;;;;;;;5016955;28;20274;-66
2022/04/27 12:23:46;;;;;;;4.40;4.00;;;;;;;;;;5020983;28;20210;-64
2022/04/27 12:26:18;;;;;;;4.37;3.97;;;;;;;;;;5017991;28;20227;-65
2022/04/27 12:28:49;;;;;;;5.13;4.63;;;;;;;;;;5017231;28;20559;-64
2022/04/27 12:31:18;;;;;;;6.43;4.27;;;;;;;;;;5017770;28;20214;-65
2022/04/27 12:33:50;;;;;;;4.77;4.37;;;;;;;;;;5022846;28;20757;-65
2022/04/27 12:39:22;;;;;;;4.97;4.57;;;;;;;;;;5018622;28;20205;-66
2022/04/27 12:41:52;;;;;;;5.20;4.80;;;;;;;;;;5018972;28;20566;-65
2022/04/27 12:44:21;;;;;;;4.83;4.43;;;;;;;;;;5013670;28;20207;-66
2022/04/27 12:46:59;;;;;;;4.53;4.13;;;;;;;;;;5018597;28;20240;-64
2022/04/27 12:49:27;;;;;;;3.70;3.40;;;;;;;;;;5019263;28;20215;-66
2022/04/27 12:51:57;;;;;;;4.03;3.63;;;;;;;;;;5020305;28;20433;-65
2022/04/27 12:54:35;;;;;;;3.83;3.53;;;;;;;;;;5013638;28;20215;-66
2022/04/27 12:57:04;;;;;;;5.07;3.43;;;;;;;;;;5010109;28;20297;-66
2022/04/27 12:59:32;;;;;;;3.37;3.17;;;;;;;;;;5012312;28;20223;-64
2022/04/27 13:02:01;;;;;;;3.73;3.43;;;;;;;;;;5014531;28;20458;-64
2022/04/27 13:04:28;;;;;;;3.90;3.60;;;;;;;;;;5019594;28;20267;-66
2022/04/27 13:06:57;;;;;;;3.30;3.10;;;;;;;;;;5016056;28;20233;-66
2022/04/27 13:12:14;;;;;;;3.10;2.90;;;;;;;;;;5020114;28;20259;-66
2022/04/27 13:14:43;;;;;;;2.90;2.70;;;;;;;;;;5020950;28;20273;-66
2022/04/27 13:17:10;;;;;;;2.83;2.63;;;;;;;;;;5018310;28;20223;-66
2022/04/27 13:19:38;;;;;;;2.80;2.60;;;;;;;;;;5014144;28;20203;-66
2022/04/27 13:22:05;;;;;;;3.50;3.20;;;;;;;;;;5019726;28;20619;-66
2022/04/27 13:24:33;;;;;;;3.22;2.97;;;;;;;;;;5016344;28;20321;-65
2022/04/27 13:27:22;;;;;;;3.15;2.92;;;;;;;;;;5015264;28;20226;-65
2022/04/27 13:29:50;;;;;;;2.88;2.67;;;;;;;;;;5015581;28;20211;-65
2022/04/27 13:32:17;;;;;;;2.33;2.23;;;;;;;;;;5017698;28;20203;-66
2022/04/27 13:34:45;;;;;;;2.50;2.30;;;;;;;;;;5013481;28;20675;-65
2022/04/27 13:37:12;;;;;;;3.77;3.30;;;;;;;;;;5010438;28;20606;-65
2022/04/27 13:39:39;;;;;;;4.50;4.10;;;;;;;;;;5012016;28;20273;-65
2022/04/27 13:42:07;;;;;;;3.30;3.00;;;;;;;;;;5012890;28;20297;-66
2022/04/27 13:44:35;;;;;;;2.73;2.53;;;;;;;;;;5012613;28;20259;-66
2022/04/27 13:47:02;;;;;;;2.23;2.13;;;;;;;;;;5009456;28;20230;-65
2022/04/27 13:49:30;;;;;;;2.93;2.73;;;;;;;;;;5016118;28;20835;-65
2022/04/27 13:51:59;;;;;;;4.13;2.73;;;;;;;;;;5012050;28;21155;-64
2022/04/27 13:54:27;;;;;;;2.60;2.40;;;;;;;;;;5007382;28;20233;-65
2022/04/27 13:56:54;;;;;;;3.30;3.00;;;;;;;;;;5013559;28;20232;-65
2022/04/27 13:59:23;;;;;;;3.47;3.17;;;;;;;;;;5014766;28;20464;-65
2022/04/27 14:01:51;;;;;;;2.70;2.50;;;;;;;;;;5014093;28;20587;-65
2022/04/27 14:04:19;;;;;;;3.47;3.17;;;;;;;;;;5014326;28;20207;-65
2022/04/27 14:06:51;;;;;;;3.05;2.80;;;;;;;;;;5011011;28;20662;-66
2022/04/27 14:09:18;;;;;;;3.50;3.20;;;;;;;;;;5013173;28;20265;-65
2022/04/27 14:14:32;;;;;;;3.43;3.17;;;;;;;;;;5020732;28;20238;-65
2022/04/27 14:19:45;;;;;;;4.30;3.90;;;;;;;;;;5011200;28;20207;-65
2022/04/27 14:22:13;;;;;;;3.80;3.50;;;;;;;;;;5010769;28;20209;-64
2022/04/27 14:24:40;;;;;;;4.40;4.00;;;;;;;;;;5009521;28;20748;-64
2022/04/27 14:27:08;;;;;;;3.60;3.30;;;;;;;;;;5010264;28;20278;-65
2022/04/27 14:29:35;;;;;;;3.47;3.27;;;;;;;;;;5013704;28;20207;-65
2022/04/27 14:32:04;;;;;;;4.47;3.33;;;;;;;;;;5001909;28;20217;-65
2022/04/27 14:34:31;;;;;;;4.90;4.40;;;;;;;;;;5004601;28;20231;-64
2022/04/27 14:36:58;;;;;;;4.00;3.58;;;;;;;;;;5006410;28;20219;-66
2022/04/27 14:39:26;;;;;;;4.18;3.85;;;;;;;;;;4997761;28;20225;-64
2022/04/27 14:41:54;;;;;;;4.70;3.95;;;;;;;;;;5004743;28;20227;-65
2022/04/27 14:44:22;;;;;;;3.70;3.40;;;;;;;;;;5004865;28;20771;-66
2022/04/27 14:46:50;;;;;;;4.07;3.10;;;;;;;;;;5008195;28;20231;-66
2022/04/27 14:49:19;;;;;;;3.28;3.00;;;;;;;;;;5009500;28;20215;-66
2022/04/27 14:51:46;;;;;;;3.03;2.83;;;;;;;;;;5008126;28;21471;-64
2022/04/27 14:54:14;;;;;;;5.18;2.83;;;;;;;;;;5008410;28;20264;-66
2022/04/27 14:56:41;;;;;;;2.58;2.40;;;;;;;;;;5004480;28;20290;-67
2022/04/27 14:59:09;;;;;;;3.33;3.13;;;;;;;;;;5004720;28;20203;-66
2022/04/27 15:01:36;;;;;;;2.60;2.50;;;;;;;;;;5003078;28;20195;-67
2022/04/27 15:04:05;;;;;;;2.70;2.50;;;;;;;;;;5003889;28;20222;-65
2022/04/27 15:06:32;;;;;;;3.05;2.85;;;;;;;;;;5014151;28;20653;-66
2022/04/27 15:08:59;;;;;;;3.03;2.83;;;;;;;;;;5025774;28;20211;-65
2022/04/27 15:11:29;;;;;;;2.90;2.70;;;;;;;;;;5017817;28;20755;-66
2022/04/27 15:13:56;;;;;;;3.63;3.33;;;;;;;;;;5017845;28;20575;-66
2022/04/27 15:16:24;;;;;;;2.85;2.65;;;;;;;;;;5015833;28;20292;-66
2022/04/27 15:18:52;;;;;;;2.75;2.50;;;;;;;;;;5015206;28;20210;-66